Latest Weather Observations for Hamilton

IDV60801

Issued at 9:05 pm EST Thursday 31 July 2014 (issued every 30 minutes, with the page automatically refreshed every 10 minutes)

About weather observations | Map of weather stations | Latest weather observations for VIC | Other Formats
Station Details ID: 090173 Name: HAMILTON AIRPORT Lat: -37.65 Lon: 142.06 Height: 241.1 m
Data from the previous 72 hours. | See also: Recent months at Hamilton
Date/Time
EST
Temp
°C
App
Temp
°C
Dew
Point
Rel
Hum
%
Delta-T
°C
Wind Press
QNH
hPa
Press
MSL
hPa
Rain
since 9 am
mm
Dir
 
Spd
km/h
Gust
km/h
Spd
kts
Gust
kts
31/09:00pm 5.2 -1.9 3.7 90 0.6 WNW 30 43 16 23 1002.5 1002.8 11.4
31/08:30pm 4.9 -1.1 3.2 89 0.7 NW 24 32 13 17 1001.6 - 11.4
31/08:00pm 4.9 -1.8 3.4 90 0.6 NW 28 37 15 20 1001.2 - 11.4
31/07:30pm 5.2 -1.6 3.2 87 0.8 WNW 28 39 15 21 1000.9 - 11.4
31/07:01pm 5.0 -2.6 4.1 94 0.4 WNW 33 52 18 28 1001.0 - 11.4
31/07:00pm 5.0 -2.9 4.1 94 0.4 WNW 35 52 19 28 1001.1 - 11.4
31/06:48pm 5.7 -2.2 4.3 91 0.6 W 35 44 19 24 1000.9 - 11.2
31/06:30pm 5.2 1.1 4.6 96 0.3 NW 15 20 8 11 1000.4 - 11.0
31/06:00pm 5.3 -0.8 4.9 97 0.2 WNW 26 43 14 23 1000.1 1000.5 11.0
31/05:30pm 5.8 -0.2 5.1 95 0.3 WNW 26 43 14 23 999.9 - 10.2
31/05:04pm 5.7 -0.7 5.4 98 0.1 WNW 28 37 15 20 999.4 - 10.0
31/05:00pm 5.7 -0.7 5.4 98 0.1 NW 28 37 15 20 999.3 - 10.0
31/04:44pm 5.5 -2.3 4.9 96 0.3 WNW 35 59 19 32 999.4 - 10.0
31/04:39pm 5.9 -1.3 5.2 95 0.3 W 32 52 17 28 999.2 - 9.6
31/04:30pm 6.3 -0.8 5.6 95 0.3 WNW 32 43 17 23 999.3 - 9.2
31/04:00pm 6.5 -0.2 5.8 95 0.3 WNW 30 39 16 21 999.3 - 9.2
31/03:30pm 6.3 -0.8 5.7 96 0.3 WNW 32 44 17 24 998.4 - 8.8
31/03:11pm 6.1 -1.6 5.5 96 0.3 WNW 35 54 19 29 998.4 - 8.8
31/03:02pm 6.1 -1.9 5.8 98 0.1 WNW 37 50 20 27 998.6 - 8.8
31/03:00pm 6.1 -1.8 6.0 99 0.0 WNW 37 50 20 27 998.6 998.9 8.8
31/02:45pm 6.0 -1.0 5.9 99 0.0 WNW 32 54 17 29 998.7 - 8.6
31/02:40pm 5.9 -0.4 5.8 99 0.0 W 28 46 15 25 998.4 - 8.6
31/02:30pm 6.1 -0.9 6.0 99 0.0 W 32 43 17 23 998.6 - 8.0
31/02:19pm 6.2 -0.8 6.1 99 0.0 W 32 41 17 22 998.4 - 7.2
31/02:17pm 6.3 -0.7 6.2 99 0.0 W 32 44 17 24 998.3 - 7.2
31/02:01pm 6.4 -0.1 6.3 99 0.0 W 30 44 16 24 997.8 - 6.4
31/02:00pm 6.4 -0.1 6.3 99 0.0 W 30 44 16 24 997.7 - 6.4
31/01:43pm 6.4 -1.5 6.3 99 0.0 W 37 50 20 27 997.8 - 5.8
31/01:30pm 6.5 -1.4 6.4 99 0.0 W 37 54 20 29 997.7 - 5.4
31/01:10pm 6.8 -1.4 6.7 99 0.0 W 39 57 21 31 997.6 - 4.8
31/01:07pm 6.9 -1.2 6.8 99 0.0 W 39 57 21 31 997.7 - 4.6
31/01:00pm 6.9 -2.0 6.8 99 0.0 W 43 54 23 29 997.4 - 4.6
31/12:56pm 6.9 -2.0 6.8 99 0.0 W 43 56 23 30 997.2 - 4.6
31/12:54pm 6.9 -2.0 6.8 99 0.0 W 43 56 23 30 997.3 - 4.6
31/12:46pm 7.2 -2.6 7.1 99 0.0 W 48 67 26 36 997.2 - 4.4
31/12:34pm 7.7 -4.1 7.6 99 0.0 WSW 59 69 32 37 996.8 - 4.4
31/12:33pm 8.0 0.1 7.9 99 0.0 W 39 69 21 37 996.7 - 4.2
31/12:32pm 8.7 1.4 8.6 99 0.0 W 37 59 20 32 996.6 - 4.2
31/12:30pm 8.9 2.0 8.8 99 0.0 W 35 50 19 27 996.5 - 4.0
31/12:19pm 9.0 3.1 8.9 99 0.0 WNW 30 50 16 27 996.2 - 3.8
31/12:13pm 8.9 2.6 8.8 99 0.0 WNW 32 44 17 24 996.3 - 3.6
31/12:06pm 8.8 2.2 8.7 99 0.0 WNW 33 46 18 25 996.4 - 3.4
31/12:00pm 8.8 2.4 8.7 99 0.0 WNW 32 46 17 25 996.5 996.9 3.0
31/11:47am 8.3 -1.9 6.9 91 0.7 W 50 70 27 38 996.5 - 1.2
31/11:46am 9.6 -0.4 7.7 88 0.9 W 50 70 27 38 996.4 - 0.4
31/11:45am 11.9 3.5 9.6 86 1.2 W 44 70 24 38 996.4 - 0.0
31/11:32am 12.5 3.0 9.9 84 1.3 NNW 50 69 27 37 995.0 - 0.0
31/11:30am 12.5 2.6 9.9 84 1.3 NNW 52 69 28 37 995.1 - 0.0
31/11:00am 12.5 3.7 9.7 83 1.4 NNW 46 67 25 36 995.6 - 0.0
31/10:30am 12.3 2.3 9.5 83 1.4 NNW 52 72 28 39 996.1 - 0.0
31/10:04am 11.8 2.9 9.2 84 1.3 NNW 46 78 25 42 996.9 - 0.0
31/10:00am 11.7 3.2 9.3 85 1.2 NNW 44 57 24 31 997.0 - 0.0
31/09:30am 11.6 1.9 9.2 85 1.2 N 50 72 27 39 996.9 - 0.0
31/09:01am 11.1 1.7 8.8 86 1.2 NNW 48 67 26 36 997.9 - 0.0
31/09:00am 11.2 1.5 8.9 86 1.2 NNW 50 67 27 36 997.8 998.2 1.4
31/08:37am 11.3 2.0 9.0 86 1.2 NNW 48 67 26 36 998.3 - 1.4
31/08:30am 11.1 2.1 8.8 86 1.2 NNW 46 61 25 33 998.5 - 1.4
31/08:00am 10.2 1.7 8.6 90 0.8 N 43 54 23 29 998.7 - 1.4
31/07:30am 10.0 1.6 8.8 92 0.6 N 43 54 23 29 999.2 - 1.4
31/07:00am 10.1 2.1 8.9 92 0.6 N 41 57 22 31 999.7 - 1.4
31/06:30am 10.6 2.5 8.5 87 1.0 N 41 59 22 32 999.9 - 1.4
31/06:06am 11.4 2.4 9.0 85 1.2 NNW 46 65 25 35 1000.2 - 1.4
31/06:00am 11.4 2.1 9.0 85 1.2 N 48 65 26 35 1000.1 1000.5 1.4
31/05:30am 11.1 2.8 9.2 88 1.0 N 43 69 23 37 1000.5 - 1.4
31/05:03am 11.4 3.1 9.5 88 1.0 N 43 63 23 34 1000.9 - 1.4
31/05:00am 11.4 3.1 9.3 87 1.1 N 43 59 23 32 1000.9 - 1.4
31/04:30am 11.5 4.4 9.4 87 1.1 N 37 56 20 30 1001.4 - 1.4
31/04:28am 11.5 4.4 9.4 87 1.1 NNW 37 56 20 30 1001.4 - 1.4
31/04:00am 11.7 4.2 9.3 85 1.2 N 39 54 21 29 1001.8 - 1.4
31/03:30am 12.3 3.8 9.3 82 1.5 NNW 44 69 24 37 1002.7 - 1.4
31/03:00am 12.4 4.3 10.0 85 1.3 NNW 43 63 23 34 1003.1 1003.4 1.4
31/02:41am 12.3 4.2 9.9 85 1.2 NNW 43 61 23 33 1003.5 - 1.4
31/02:30am 12.1 4.4 10.0 87 1.1 NNW 41 57 22 31 1003.5 - 1.4
31/02:25am 12.2 4.9 10.1 87 1.1 N 39 57 21 31 1003.5 - 1.4
31/02:00am 12.0 5.2 10.6 91 0.7 N 37 50 20 27 1004.3 - 1.4
31/01:30am 12.0 5.2 10.7 92 0.7 NNW 37 50 20 27 1004.7 - 1.4
31/01:00am 11.8 5.0 10.7 93 0.6 N 37 48 20 26 1005.1 - 1.4
31/12:30am 12.1 5.7 10.7 91 0.7 NNW 35 48 19 26 1006.0 - 1.4
31/12:20am 12.2 5.1 10.8 91 0.7 NNW 39 57 21 31 1006.2 - 1.4
31/12:00am 12.0 5.7 10.9 93 0.6 NNW 35 46 19 25 1006.6 1007.1 1.4
 
Date/Time
EST
Temp
°C
App
Temp
°C
Dew
Point
Rel
Hum
%
Delta-T
°C
Wind Press
QNH
hPa
Press
MSL
hPa
Rain
since 9 am
mm
Dir
 
Spd
km/h
Gust
km/h
Spd
kts
Gust
kts
30/11:30pm 12.0 5.3 10.9 93 0.6 NNW 37 50 20 27 1007.0 - 1.4
30/11:00pm 11.5 5.6 11.3 99 0.1 NNW 33 52 18 28 1007.6 - 1.4
30/10:59pm 11.5 5.6 11.3 99 0.1 NNW 33 52 18 28 1007.6 - 1.4
30/10:30pm 12.0 5.8 11.5 97 0.3 NNW 35 46 19 25 1007.9 - 1.2
30/10:18pm 12.3 6.1 11.4 94 0.5 NNW 35 54 19 29 1008.0 - 1.2
30/10:00pm 12.2 5.6 11.4 95 0.4 NNW 37 48 20 26 1008.3 - 1.2
30/09:30pm 11.6 5.4 11.4 99 0.1 NNW 35 52 19 28 1008.4 - 1.2
30/09:00pm 11.2 4.1 11.0 99 0.1 NNW 39 54 21 29 1009.2 1009.6 1.2
30/08:53pm 11.6 5.3 11.1 97 0.3 NNW 35 54 19 29 1009.1 - 1.2
30/08:30pm 11.9 5.5 10.8 93 0.6 NNW 35 50 19 27 1009.2 - 1.2
30/08:00pm 12.4 6.7 11.0 91 0.7 NNW 32 43 17 23 1009.1 - 1.2
30/07:30pm 12.1 6.1 10.8 92 0.7 NNW 33 44 18 24 1009.2 - 1.2
30/07:00pm 12.6 6.8 10.7 88 1.0 NNW 32 41 17 22 1009.3 - 1.2
30/06:30pm 12.6 7.3 11.2 91 0.7 NNW 30 43 16 23 1009.4 - 1.2
30/06:00pm 12.7 7.0 11.1 90 0.9 NNW 32 44 17 24 1009.3 1009.7 1.2
30/05:30pm 12.8 7.6 11.5 92 0.7 NNW 30 41 16 22 1009.5 - 1.2
30/05:00pm 13.3 7.5 11.5 89 1.0 NNW 33 46 18 25 1009.4 - 1.2
30/04:30pm 13.4 7.2 11.5 88 1.0 NNW 35 46 19 25 1009.3 - 1.2
30/04:00pm 13.3 6.7 11.4 88 1.0 NW 37 56 20 30 1009.5 - 1.2
30/03:55pm 13.2 7.4 11.6 90 0.9 NW 33 56 18 30 1009.5 - 1.2
30/03:30pm 13.5 7.4 11.6 88 1.0 NNW 35 46 19 25 1009.7 - 1.2
30/03:09pm 14.0 8.5 11.9 87 1.1 NNW 32 50 17 27 1009.6 - 1.2
30/03:00pm 14.6 9.9 13.3 92 0.7 NNW 30 41 16 22 1009.8 1010.2 1.2
30/02:30pm 13.9 7.7 12.8 93 0.6 NW 37 54 20 29 1009.8 - 1.2
30/02:03pm 13.9 8.4 12.6 92 0.7 NNW 33 52 18 28 1009.7 - 1.2
30/02:00pm 13.9 8.4 12.6 92 0.7 NNW 33 46 18 25 1009.7 - 1.2
30/01:30pm 13.8 7.9 12.5 92 0.7 NNW 35 52 19 28 1010.1 - 1.2
30/01:05pm 13.8 8.5 12.5 92 0.7 NNW 32 50 17 27 1010.5 - 1.2
30/01:00pm 13.9 9.1 13.0 94 0.5 NW 30 43 16 23 1010.6 - 1.2
30/12:30pm 13.1 7.4 12.9 99 0.1 NW 35 44 19 24 1011.2 - 1.2
30/12:07pm 12.9 7.1 12.7 99 0.1 NW 35 54 19 29 1011.5 - 1.2
30/12:03pm 13.0 7.2 12.8 99 0.1 NW 35 50 19 27 1011.6 - 1.2
30/12:00pm 13.0 6.8 12.8 99 0.1 NW 37 50 20 27 1011.6 1012.0 1.2
30/11:49am 12.7 7.4 12.5 99 0.1 NNW 32 48 17 26 1011.8 - 1.0
30/11:30am 13.0 8.2 12.8 99 0.1 NNW 30 43 16 23 1011.8 - 1.0
30/11:06am 13.6 8.6 13.4 99 0.1 NW 32 50 17 27 1012.0 - 1.0
30/11:00am 13.2 7.9 13.0 99 0.1 NW 33 50 18 27 1012.0 - 1.0
30/10:46am 13.0 7.8 12.8 99 0.1 NW 32 43 17 23 1012.3 - 1.0
30/10:33am 12.3 6.3 12.1 99 0.1 NW 35 54 19 29 1012.3 - 1.0
30/10:30am 12.4 7.0 12.2 99 0.1 NW 32 44 17 24 1012.4 - 1.0
30/10:28am 12.5 7.1 12.3 99 0.1 NW 32 44 17 24 1012.4 - 1.0
30/10:08am 12.3 7.3 12.1 99 0.1 NW 30 39 16 21 1012.4 - 1.0
30/10:00am 12.0 7.2 11.8 99 0.1 NW 28 44 15 24 1012.4 - 1.0
30/09:30am 11.6 7.5 11.4 99 0.1 NW 24 32 13 17 1012.4 - 0.4
30/09:06am 11.6 7.1 11.4 99 0.1 NNW 26 35 14 19 1012.3 - 0.0
30/09:01am 11.6 7.1 11.4 99 0.1 NNW 26 39 14 21 1012.4 - 0.0
30/09:00am 11.6 7.1 11.4 99 0.1 NNW 26 39 14 21 1012.4 1012.8 2.8
30/08:30am 11.4 6.8 11.2 99 0.1 NNW 26 35 14 19 1012.3 - 2.8
30/08:02am 11.2 6.6 11.0 99 0.1 NNW 26 35 14 19 1011.9 - 2.8
30/08:00am 11.2 6.6 11.0 99 0.1 NNW 26 35 14 19 1011.9 - 2.8
30/07:30am 11.1 6.8 10.9 99 0.1 NNW 24 32 13 17 1011.7 - 2.8
30/07:00am 11.0 7.5 10.8 99 0.1 NNW 20 28 11 15 1011.8 - 2.8
30/06:35am 10.9 7.3 10.7 99 0.1 NNW 20 28 11 15 1011.8 - 2.8
30/06:30am 10.9 6.6 10.7 99 0.1 NW 24 30 13 16 1011.8 - 2.8
30/06:00am 11.1 7.6 10.9 99 0.1 NNW 20 28 11 15 1011.5 1011.9 2.6
30/05:59am 11.1 7.6 10.9 99 0.1 NNW 20 28 11 15 1011.5 - 2.6
30/05:56am 11.1 7.6 10.9 99 0.1 NNW 20 28 11 15 1011.5 - 2.6
30/05:30am 11.1 7.8 10.9 99 0.1 NNW 19 24 10 13 1011.6 - 2.6
30/05:00am 11.3 8.0 11.0 98 0.2 NW 19 24 10 13 1011.7 - 2.6
30/04:30am 11.3 8.1 11.1 99 0.1 NW 19 24 10 13 1011.6 - 2.6
30/04:15am 11.3 7.5 11.1 99 0.1 NNW 22 32 12 17 1011.5 - 2.6
30/04:00am 11.1 7.6 10.9 99 0.1 NW 20 26 11 14 1011.6 - 2.6
30/03:30am 11.3 7.1 11.1 99 0.1 NW 24 35 13 19 1011.8 - 2.6
30/03:00am 11.3 6.0 11.1 99 0.1 NW 30 39 16 21 1012.1 1012.5 2.6
30/02:30am 11.0 6.3 10.8 99 0.1 NW 26 37 14 20 1012.3 - 2.6
30/02:00am 11.1 6.5 10.9 99 0.1 WNW 26 35 14 19 1012.3 - 2.6
30/01:41am 11.4 6.8 11.2 99 0.1 WNW 26 37 14 20 1012.3 - 2.6
30/01:36am 11.4 6.5 11.2 99 0.1 WNW 28 46 15 25 1012.4 - 2.6
30/01:30am 11.5 6.2 11.3 99 0.1 WNW 30 46 16 25 1012.3 - 2.6
30/01:00am 11.9 6.2 11.7 99 0.1 WNW 33 44 18 24 1012.0 - 2.6
30/12:30am 12.5 6.8 11.7 95 0.4 WNW 33 43 18 23 1011.7 - 2.6
30/12:00am 12.5 6.8 11.9 96 0.3 WNW 33 46 18 25 1011.8 1012.2 2.6
 
Date/Time
EST
Temp
°C
App
Temp
°C
Dew
Point
Rel
Hum
%
Delta-T
°C
Wind Press
QNH
hPa
Press
MSL
hPa
Rain
since 9 am
mm
Dir
 
Spd
km/h
Gust
km/h
Spd
kts
Gust
kts
29/11:30pm 12.4 6.8 12.1 98 0.2 NW 33 44 18 24 1011.6 - 2.6
29/11:00pm 12.2 6.7 12.0 99 0.1 NW 32 43 17 23 1011.4 - 2.6
29/10:30pm 12.5 7.1 12.3 99 0.1 NW 32 43 17 23 1011.3 - 2.6
29/10:00pm 12.6 7.2 12.3 98 0.2 WNW 32 44 17 24 1011.2 - 2.6
29/09:38pm 12.4 6.8 12.2 99 0.1 NW 33 44 18 24 1011.1 - 2.6
29/09:30pm 12.3 6.7 12.1 99 0.1 WNW 33 46 18 25 1011.1 - 2.6
29/09:08pm 12.2 6.2 12.0 99 0.1 NW 35 46 19 25 1010.7 - 2.6
29/09:00pm 12.7 6.4 12.4 98 0.2 NW 37 50 20 27 1010.7 1011.2 2.6
29/08:30pm 12.8 7.3 12.3 97 0.3 NW 33 52 18 28 1010.1 - 2.6
29/08:28pm 12.7 7.2 12.4 98 0.2 NW 33 52 18 28 1010.1 - 2.6
29/08:00pm 12.8 6.9 12.3 97 0.3 NW 35 50 19 27 1010.3 - 2.6
29/07:56pm 12.7 6.8 12.4 98 0.2 NW 35 50 19 27 1010.3 - 2.6
29/07:30pm 12.5 7.1 12.3 99 0.1 NW 32 52 17 28 1010.1 - 2.6
29/07:27pm 12.4 7.0 12.2 99 0.1 NW 32 52 17 28 1010.1 - 2.6
29/07:24pm 12.3 7.3 12.1 99 0.1 NW 30 39 16 21 1010.2 - 2.6
29/07:16pm 12.3 6.9 12.1 99 0.1 NW 32 39 17 21 1010.1 - 2.6
29/07:04pm 12.5 6.6 12.3 99 0.1 NW 35 46 19 25 1009.9 - 2.4
29/07:00pm 12.8 6.8 12.2 96 0.3 NW 35 46 19 25 1009.8 - 2.4
29/06:30pm 13.2 6.8 11.9 92 0.7 NW 37 50 20 27 1009.5 - 2.4
29/06:00pm 13.4 6.2 11.8 90 0.9 NW 41 57 22 31 1009.1 1009.5 2.4
29/05:34pm 13.3 7.4 12.5 95 0.4 WNW 35 56 19 30 1009.0 - 2.4
29/05:30pm 13.2 7.3 12.4 95 0.4 WNW 35 46 19 25 1009.0 - 2.4
29/05:04pm 13.0 6.5 12.8 99 0.1 WNW 39 59 21 32 1008.8 - 2.4
29/05:01pm 13.0 6.1 12.8 99 0.1 WNW 41 59 22 32 1008.7 - 2.4
29/05:00pm 13.0 6.5 12.8 99 0.1 WNW 39 56 21 30 1008.7 - 2.4
29/04:50pm 12.7 7.4 12.5 99 0.1 WNW 32 61 17 33 1008.8 - 2.4
29/04:48pm 12.7 7.7 12.2 97 0.3 WNW 30 39 16 21 1008.8 - 2.4
29/04:33pm 13.9 7.2 12.3 90 0.9 WNW 39 57 21 31 1008.5 - 1.8
29/04:30pm 14.0 7.0 12.4 90 0.9 WNW 41 57 22 31 1008.3 - 1.8
29/04:00pm 14.1 7.9 12.5 90 0.9 NW 37 57 20 31 1008.1 - 1.8
29/03:57pm 14.1 8.2 12.5 90 0.9 NW 35 57 19 31 1008.0 - 1.8
29/03:30pm 14.5 6.9 12.4 87 1.2 WNW 44 56 24 30 1007.8 - 1.8
29/03:00pm 14.7 7.5 13.1 90 0.9 WNW 43 63 23 34 1007.7 1008.1 1.8
29/02:30pm 14.2 7.4 13.2 94 0.6 WNW 41 61 22 33 1007.6 - 1.8
29/02:02pm 12.6 5.0 12.4 99 0.1 WNW 44 70 24 38 1007.5 - 1.8
29/02:01pm 12.6 5.0 12.4 99 0.1 WNW 44 70 24 38 1007.6 - 1.8
29/02:00pm 12.5 4.5 12.3 99 0.1 NW 46 70 25 38 1007.5 - 1.8
29/01:51pm 12.4 4.7 12.2 99 0.1 WNW 44 69 24 37 1007.5 - 1.8
29/01:48pm 12.4 5.3 12.2 99 0.1 WNW 41 69 22 37 1007.5 - 1.8
29/01:35pm 12.8 8.3 12.6 99 0.1 WNW 28 48 15 26 1007.3 - 1.2
29/01:30pm 12.6 8.4 12.4 99 0.1 WNW 26 37 14 20 1007.3 - 1.2
29/01:28pm 12.5 8.3 12.3 99 0.1 WNW 26 39 14 21 1007.3 - 1.2
29/01:18pm 12.4 7.4 12.2 99 0.1 WNW 30 39 16 21 1007.4 - 1.0
29/01:02pm 12.6 5.6 12.4 99 0.1 NW 41 54 22 29 1007.5 - 0.2
29/01:00pm 12.8 5.8 12.6 99 0.1 NW 41 56 22 30 1007.5 - 0.2
29/12:30pm 13.1 7.0 12.9 99 0.1 NNW 37 56 20 30 1007.8 - 0.2
29/12:27pm 13.3 7.6 13.1 99 0.1 NNW 35 56 19 30 1007.9 - 0.2
29/12:00pm 12.8 7.3 12.6 99 0.1 NNW 33 46 18 25 1008.1 1008.5 0.2
29/11:30am 12.0 6.3 11.8 99 0.1 NNW 33 46 18 25 1008.6 - 0.2
29/11:19am 11.9 5.8 11.7 99 0.1 NNW 35 54 19 29 1008.7 - 0.2
29/11:00am 12.4 6.1 12.2 99 0.1 NNW 37 50 20 27 1008.8 - 0.2
29/10:30am 11.3 4.6 11.1 99 0.1 NNW 37 50 20 27 1008.5 - 0.2
29/10:06am 11.5 5.3 11.3 99 0.1 NNW 35 54 19 29 1008.6 - 0.2
29/10:00am 11.6 5.4 11.4 99 0.1 NNW 35 46 19 25 1008.6 - 0.2
29/09:56am 11.4 5.5 11.2 99 0.1 NNW 33 46 18 25 1008.8 - 0.2
29/09:40am 10.9 4.9 10.7 99 0.1 NNW 33 46 18 25 1008.8 - 0.2
29/09:39am 10.9 4.9 10.7 99 0.1 NNW 33 43 18 23 1008.7 - 0.2
29/09:30am 11.0 4.6 10.8 99 0.1 NNW 35 46 19 25 1008.7 - 0.0
29/09:25am 11.0 4.2 10.8 99 0.1 NNW 37 50 20 27 1008.6 - 0.0
29/09:00am 11.4 4.8 11.2 99 0.1 NNW 37 48 20 26 1008.4 1008.8 0.0
29/08:30am 11.0 5.0 10.8 99 0.1 NNW 33 43 18 23 1008.3 - 0.0
29/08:00am 10.9 4.9 10.7 99 0.1 NNW 33 46 18 25 1008.8 - 0.0
29/07:30am 10.6 4.7 10.4 99 0.1 N 32 39 17 21 1008.8 - 0.0
29/07:00am 10.5 4.0 10.3 99 0.1 NNW 35 48 19 26 1008.7 - 0.0
29/06:30am 10.6 4.1 10.3 98 0.2 NNW 35 46 19 25 1008.3 - 0.0
29/06:00am 11.0 3.7 10.2 95 0.4 NNW 39 50 21 27 1007.9 1008.3 0.0
29/05:30am 10.9 3.9 10.1 95 0.4 NNW 37 50 20 27 1008.0 - 0.0
29/05:09am 10.7 3.4 10.1 96 0.3 NNW 39 57 21 31 1007.9 - 0.0
29/05:00am 10.8 3.5 10.2 96 0.3 NNW 39 52 21 28 1008.1 - 0.0
29/04:30am 11.0 4.1 10.2 95 0.4 NNW 37 46 20 25 1008.4 - 0.0
29/04:00am 10.9 3.6 10.1 95 0.4 NNW 39 52 21 28 1008.3 - 0.0
29/03:30am 11.0 4.1 10.2 95 0.4 NNW 37 50 20 27 1008.5 - 0.0
29/03:00am 10.7 4.2 10.4 98 0.2 NNW 35 46 19 25 1008.9 1009.3 0.0
29/02:42am 11.4 4.4 10.1 92 0.7 NNW 37 56 20 30 1009.0 - 0.0
29/02:30am 11.2 5.0 10.1 93 0.6 NNW 33 46 18 25 1009.1 - 0.0
29/02:00am 10.7 5.1 10.1 96 0.3 N 30 41 16 22 1009.3 - 0.0
29/01:30am 10.5 4.8 9.9 96 0.3 N 30 35 16 19 1009.7 - 0.0
29/01:00am 10.8 4.8 10.0 95 0.4 N 32 39 17 21 1010.1 - 0.0
29/12:30am 10.9 5.3 10.0 94 0.5 N 30 37 16 20 1010.3 - 0.0
29/12:00am 11.1 5.1 10.0 93 0.6 NNW 32 44 17 24 1011.1 1011.5 0.0
 
Date/Time
EST
Temp
°C
App
Temp
°C
Dew
Point
Rel
Hum
%
Delta-T
°C
Wind Press
QNH
hPa
Press
MSL
hPa
Rain
since 9 am
mm
Dir
 
Spd
km/h
Gust
km/h
Spd
kts
Gust
kts
28/11:30pm 11.0 4.8 9.9 93 0.6 NNW 33 41 18 22 1011.3 - 0.0
28/11:00pm 10.9 4.8 9.7 92 0.6 NNW 32 46 17 25 1011.7 - 0.0
28/10:30pm 11.0 5.2 9.4 90 0.8 N 30 39 16 21 1011.9 - 0.0
28/10:00pm 11.2 5.4 9.5 89 0.9 NNW 30 41 16 22 1012.2 - 0.0
28/09:30pm 11.1 5.2 9.2 88 1.0 NNW 30 41 16 22 1012.2 - 0.0

Other Formats:

Comma delimited format used in spreadsheet applications
http://www.bom.gov.au/fwo/IDV60801/IDV60801.94829.axf

JavaScript Object Notation format (JSON) in row-major order
http://www.bom.gov.au/fwo/IDV60801/IDV60801.94829.json